createdAt,value
2023-12-05T00:02:18.002Z,89.73
2023-12-05T00:06:21.405Z,89.88
2023-12-05T00:10:24.744Z,90.07
2023-12-05T00:14:28.112Z,90.15
2023-12-05T00:18:31.512Z,90.37
2023-12-05T00:22:34.887Z,90.72
2023-12-05T00:26:38.296Z,91.16
2023-12-05T00:30:42.017Z,90.61
2023-12-05T00:34:49.445Z,90.43
2023-12-05T00:38:52.938Z,90.41
2023-12-05T00:42:58.735Z,90.73
2023-12-05T00:47:04.845Z,90.63
2023-12-05T00:51:08.658Z,91.01
2023-12-05T00:55:12.057Z,91.04
2023-12-05T00:59:15.425Z,91.05
2023-12-05T01:03:20.846Z,90.90
2023-12-05T01:07:24.645Z,90.89
2023-12-05T01:11:28.016Z,90.96
2023-12-05T01:15:31.342Z,90.72
2023-12-05T01:19:36.610Z,91.11
2023-12-05T01:23:39.906Z,91.39
2023-12-05T01:27:43.291Z,91.30
2023-12-05T01:31:46.628Z,91.01
2023-12-05T01:35:51.420Z,91.13
2023-12-05T01:39:54.913Z,91.46
2023-12-05T01:43:58.770Z,91.28
2023-12-05T01:48:03.628Z,91.30
2023-12-05T01:52:07.087Z,91.41
2023-12-05T01:56:12.752Z,91.49
2023-12-05T02:00:17.627Z,91.50
2023-12-05T02:04:22.658Z,91.65
2023-12-05T02:08:29.439Z,91.98
2023-12-05T02:12:32.825Z,92.21
2023-12-05T02:16:46.885Z,92.15
2023-12-05T02:21:01.412Z,92.39
2023-12-05T02:25:22.230Z,92.22
2023-12-05T02:29:25.937Z,92.33
2023-12-05T02:33:29.541Z,92.28
2023-12-05T02:37:44.839Z,92.07
2023-12-05T02:41:54.574Z,92.19
2023-12-05T02:46:08.827Z,92.39
2023-12-05T02:50:13.815Z,92.37
2023-12-05T02:54:17.341Z,92.35
2023-12-05T02:58:20.723Z,92.51
2023-12-05T03:02:24.141Z,92.64
2023-12-05T03:06:28.821Z,92.50
2023-12-05T03:10:33.241Z,92.45
2023-12-05T03:14:36.539Z,92.48
2023-12-05T03:18:40.230Z,92.69
2023-12-05T03:22:44.201Z,92.65
2023-12-05T03:26:48.020Z,92.68
2023-12-05T03:30:51.436Z,92.83
2023-12-05T03:34:54.864Z,92.74
2023-12-05T03:38:58.841Z,92.78
2023-12-05T03:43:02.234Z,93.00
2023-12-05T03:47:05.660Z,92.95
2023-12-05T03:51:08.989Z,93.08
2023-12-05T03:55:12.456Z,93.22
2023-12-05T03:59:15.746Z,93.26
2023-12-05T04:03:20.725Z,93.39
2023-12-05T04:07:24.300Z,93.60
2023-12-05T04:11:35.263Z,93.55
2023-12-05T04:15:40.604Z,93.63
2023-12-05T04:19:44.138Z,93.61
2023-12-05T04:23:48.084Z,93.70
2023-12-05T04:27:51.556Z,93.65
2023-12-05T04:31:54.977Z,93.76
2023-12-05T04:35:59.090Z,93.66
2023-12-05T04:40:05.379Z,93.69
2023-12-05T04:44:09.253Z,93.80
2023-12-05T04:48:12.726Z,93.81
2023-12-05T04:52:16.633Z,93.83
2023-12-05T04:56:20.035Z,93.76
2023-12-05T05:00:23.384Z,93.63
2023-12-05T05:04:26.915Z,93.93
2023-12-05T05:08:30.311Z,93.72
2023-12-05T05:12:33.702Z,93.95
2023-12-05T05:16:37.066Z,94.02
2023-12-05T05:20:40.528Z,93.86
2023-12-05T05:24:44.012Z,93.88
2023-12-05T05:28:47.504Z,93.89
2023-12-05T05:32:50.900Z,93.69
2023-12-05T05:36:54.329Z,93.76
2023-12-05T05:41:08.913Z,93.87
2023-12-05T05:45:13.326Z,94.05
2023-12-05T05:49:16.758Z,94.16
2023-12-05T05:53:20.178Z,93.94
2023-12-05T05:57:23.630Z,93.94
2023-12-05T06:01:26.973Z,93.93
2023-12-05T06:05:30.745Z,93.78
2023-12-05T06:09:34.854Z,93.77
2023-12-05T06:13:38.207Z,93.73
2023-12-05T06:17:41.856Z,93.75
2023-12-05T06:21:45.384Z,93.84
2023-12-05T06:25:48.797Z,93.63
2023-12-05T06:29:52.157Z,93.55
2023-12-05T06:33:55.606Z,93.46
2023-12-05T06:37:58.892Z,93.64
2023-12-05T06:42:02.166Z,93.45
2023-12-05T06:46:06.098Z,93.60
2023-12-05T06:50:12.918Z,93.63
2023-12-05T06:54:16.689Z,93.56
2023-12-05T06:58:19.998Z,93.56
2023-12-05T07:02:23.345Z,93.51
2023-12-05T07:06:26.932Z,93.46
2023-12-05T07:10:30.454Z,93.66
2023-12-05T07:14:37.178Z,93.59
2023-12-05T07:18:41.802Z,93.55
2023-12-05T07:22:45.711Z,93.66
2023-12-05T07:26:49.929Z,93.63
2023-12-05T07:30:55.171Z,93.76
2023-12-05T07:34:59.278Z,93.70
2023-12-05T07:39:05.162Z,93.65
2023-12-05T07:43:08.819Z,93.73
2023-12-05T07:47:13.460Z,93.64
2023-12-05T07:51:19.493Z,93.71
2023-12-05T07:55:23.871Z,93.77
2023-12-05T07:59:27.222Z,93.77
2023-12-05T08:03:31.665Z,93.72
2023-12-05T08:07:35.173Z,93.83
2023-12-05T08:11:39.608Z,93.71
2023-12-05T08:15:43.257Z,93.69
2023-12-05T08:19:46.703Z,93.49
2023-12-05T08:23:50.063Z,93.20
2023-12-05T08:27:53.461Z,93.35
2023-12-05T08:31:57.146Z,93.24
2023-12-05T08:36:00.453Z,93.23
2023-12-05T08:40:04.220Z,92.89
2023-12-05T08:44:07.700Z,92.45
2023-12-05T08:48:11.691Z,92.29
2023-12-05T08:52:15.320Z,92.16
2023-12-05T08:56:19.051Z,92.03
2023-12-05T09:00:22.726Z,92.13
2023-12-05T09:04:26.258Z,91.83
2023-12-05T09:08:30.655Z,91.87
2023-12-05T09:12:34.223Z,91.77
2023-12-05T09:16:37.623Z,91.56
2023-12-05T09:20:42.068Z,91.63
2023-12-05T09:24:45.646Z,91.41
2023-12-05T09:28:49.056Z,91.51
2023-12-05T09:32:54.132Z,91.14
2023-12-05T09:36:58.019Z,90.96
2023-12-05T09:41:04.053Z,90.90
2023-12-05T09:45:15.256Z,91.18
2023-12-05T09:49:23.669Z,90.85
2023-12-05T09:53:29.407Z,90.92
2023-12-05T09:57:33.519Z,90.78
2023-12-05T10:01:37.710Z,90.57
2023-12-05T10:05:43.874Z,90.33
2023-12-05T10:09:48.874Z,90.16
2023-12-05T10:13:52.325Z,90.33
2023-12-05T10:17:56.253Z,90.34
2023-12-05T10:22:01.168Z,90.17
2023-12-05T10:26:04.709Z,90.18
2023-12-05T10:30:08.516Z,90.18
2023-12-05T10:34:11.926Z,89.75
2023-12-05T10:38:20.796Z,89.65
2023-12-05T10:42:27.947Z,89.76
2023-12-05T10:46:37.990Z,89.74
2023-12-05T10:50:42.465Z,89.70
2023-12-05T10:54:45.932Z,89.46
2023-12-05T10:58:50.454Z,89.66
2023-12-05T11:02:55.261Z,89.63
2023-12-05T11:06:58.682Z,89.60
2023-12-05T11:11:06.528Z,89.62
2023-12-05T11:15:11.232Z,89.70
2023-12-05T11:19:56.333Z,89.62
2023-12-05T11:24:26.589Z,89.67
2023-12-05T11:28:51.980Z,89.36
2023-12-05T11:33:19.640Z,89.45
2023-12-05T11:37:53.903Z,89.50
2023-12-05T11:42:11.851Z,89.11
2023-12-05T11:46:17.883Z,89.24
2023-12-05T11:50:21.824Z,89.02
2023-12-05T11:54:33.304Z,88.83
2023-12-05T11:58:36.759Z,88.58
2023-12-05T12:02:48.986Z,88.63
2023-12-05T12:06:52.438Z,88.56
2023-12-05T12:10:57.443Z,88.42
2023-12-05T12:15:00.977Z,88.32
2023-12-05T12:19:05.282Z,88.48
2023-12-05T12:23:08.986Z,88.62
2023-12-05T12:27:12.903Z,88.56
2023-12-05T12:31:27.643Z,88.62
2023-12-05T12:35:32.578Z,88.22
2023-12-05T12:39:37.584Z,88.13
2023-12-05T12:43:44.164Z,88.13
2023-12-05T12:47:47.683Z,88.05
2023-12-05T12:51:51.277Z,88.12
2023-12-05T12:55:54.974Z,88.13
2023-12-05T13:00:29.864Z,88.07
2023-12-05T13:04:21.903Z,87.93
2023-12-05T13:08:25.525Z,87.94
2023-12-05T13:12:29.062Z,87.82
2023-12-05T13:16:32.393Z,87.82
2023-12-05T13:20:50.791Z,87.68
2023-12-05T13:24:54.180Z,87.85
2023-12-05T13:28:57.711Z,87.90
2023-12-05T13:33:01.129Z,87.89
2023-12-05T13:37:04.667Z,87.99
2023-12-05T13:41:08.046Z,87.85
2023-12-05T13:45:13.022Z,87.93
2023-12-05T13:49:18.591Z,87.94
2023-12-05T13:53:24.819Z,87.96
2023-12-05T13:57:28.508Z,87.94
2023-12-05T14:01:31.884Z,87.85
2023-12-05T14:05:35.346Z,87.91
2023-12-05T14:09:38.861Z,87.85
2023-12-05T14:13:42.233Z,87.86
2023-12-05T14:17:45.529Z,87.77
2023-12-05T14:21:50.025Z,87.77
2023-12-05T14:25:53.492Z,87.92
2023-12-05T14:29:56.930Z,88.06
2023-12-05T14:34:00.332Z,88.05
2023-12-05T14:38:03.710Z,88.14
2023-12-05T14:42:07.083Z,88.17
2023-12-05T14:46:10.479Z,88.21
2023-12-05T14:50:14.856Z,88.36
2023-12-05T14:54:18.165Z,88.29
2023-12-05T14:58:22.278Z,88.35
2023-12-05T15:02:25.783Z,88.67
2023-12-05T15:06:29.273Z,88.97
2023-12-05T15:10:32.599Z,89.07
2023-12-05T15:14:36.819Z,89.08
2023-12-05T15:18:40.248Z,89.16
2023-12-05T15:22:44.096Z,89.16
2023-12-05T15:26:48.637Z,89.11
2023-12-05T15:30:52.803Z,89.07
2023-12-05T15:34:56.137Z,88.94
2023-12-05T15:38:59.536Z,89.18
2023-12-05T15:43:03.042Z,89.21
2023-12-05T15:47:08.624Z,89.47
2023-12-05T15:51:12.036Z,89.48
2023-12-05T15:55:15.858Z,89.51
2023-12-05T15:59:21.006Z,89.42
2023-12-05T16:03:24.475Z,89.44
2023-12-05T16:07:28.293Z,89.27
2023-12-05T16:11:32.130Z,89.29
2023-12-05T16:15:35.421Z,89.51
2023-12-05T16:19:39.886Z,89.93
2023-12-05T16:23:43.553Z,89.99
2023-12-05T16:27:46.858Z,90.09
2023-12-05T16:31:50.145Z,90.05
2023-12-05T16:35:53.486Z,90.33
2023-12-05T16:39:57.404Z,90.33
2023-12-05T16:44:00.923Z,90.42
2023-12-05T16:48:04.560Z,90.48
2023-12-05T16:52:08.386Z,90.59
2023-12-05T16:56:12.574Z,90.49
2023-12-05T17:00:16.217Z,90.47
2023-12-05T17:04:19.738Z,90.53
2023-12-05T17:08:23.288Z,90.77
2023-12-05T17:12:26.657Z,90.81
2023-12-05T17:16:30.013Z,91.01
2023-12-05T17:20:33.846Z,90.94
2023-12-05T17:24:37.372Z,90.85
2023-12-05T17:28:40.756Z,90.83
2023-12-05T17:32:44.512Z,90.89
2023-12-05T17:36:47.942Z,90.70
2023-12-05T17:40:51.805Z,90.84
2023-12-05T17:44:55.487Z,90.73
2023-12-05T17:49:02.345Z,90.78
2023-12-05T17:53:05.867Z,90.66
2023-12-05T17:57:11.855Z,90.46
2023-12-05T18:01:15.242Z,90.59
2023-12-05T18:05:18.947Z,90.73
2023-12-05T18:09:25.019Z,90.93
2023-12-05T18:13:29.885Z,91.29
2023-12-05T18:17:33.456Z,91.09
2023-12-05T18:21:36.931Z,91.20
2023-12-05T18:25:41.280Z,91.14
2023-12-05T18:29:45.795Z,90.80
2023-12-05T18:33:51.072Z,90.92
2023-12-05T18:37:54.581Z,90.87
2023-12-05T18:41:59.190Z,90.88
2023-12-05T18:46:04.657Z,90.86
2023-12-05T18:50:08.646Z,90.85
2023-12-05T18:54:12.092Z,90.83
2023-12-05T18:58:15.499Z,91.16
2023-12-05T19:02:18.899Z,91.06
2023-12-05T19:06:22.699Z,91.28
2023-12-05T19:10:26.213Z,91.37
2023-12-05T19:14:30.214Z,91.43
2023-12-05T19:18:34.235Z,91.56
2023-12-05T19:22:37.835Z,91.43
2023-12-05T19:26:41.384Z,91.33
2023-12-05T19:30:48.330Z,91.35
2023-12-05T19:34:52.418Z,91.55
2023-12-05T19:38:55.840Z,91.59
2023-12-05T19:43:00.256Z,91.80
2023-12-05T19:47:03.708Z,91.71
2023-12-05T19:51:07.167Z,91.77
2023-12-05T19:55:10.621Z,91.76
2023-12-05T19:59:15.198Z,91.93
2023-12-05T20:03:20.185Z,91.98
2023-12-05T20:07:23.867Z,92.00
2023-12-05T20:11:27.159Z,91.88
2023-12-05T20:15:32.053Z,92.00
2023-12-05T20:19:35.610Z,92.16
2023-12-05T20:23:38.973Z,92.16
2023-12-05T20:27:43.822Z,92.25
2023-12-05T20:31:47.132Z,92.24
2023-12-05T20:35:50.552Z,92.29
2023-12-05T20:39:53.924Z,92.33
2023-12-05T20:43:57.311Z,92.45
2023-12-05T20:48:04.562Z,92.68
2023-12-05T20:52:08.111Z,92.75
2023-12-05T20:56:11.507Z,92.80
2023-12-05T21:00:15.056Z,93.10
2023-12-05T21:04:19.496Z,93.22
2023-12-05T21:08:23.058Z,93.31
2023-12-05T21:12:26.341Z,93.60
2023-12-05T21:16:29.633Z,93.83
2023-12-05T21:20:33.141Z,94.24
2023-12-05T21:24:37.591Z,94.19
2023-12-05T21:28:41.669Z,94.45
2023-12-05T21:32:44.983Z,94.58
2023-12-05T21:36:49.260Z,94.58
2023-12-05T21:40:52.772Z,94.53
2023-12-05T21:44:56.097Z,94.73
2023-12-05T21:49:02.665Z,94.71
2023-12-05T21:53:06.143Z,94.97
2023-12-05T21:57:09.568Z,94.88
2023-12-05T22:01:14.733Z,94.79
2023-12-05T22:05:19.848Z,94.79
2023-12-05T22:09:23.243Z,94.84
2023-12-05T22:13:30.914Z,94.86
2023-12-05T22:17:35.234Z,94.51
2023-12-05T22:21:43.039Z,94.50
2023-12-05T22:25:50.001Z,94.47
2023-12-05T22:29:55.984Z,94.48
2023-12-05T22:34:00.117Z,94.43
2023-12-05T22:38:03.482Z,94.51
2023-12-05T22:42:06.866Z,94.57
2023-12-05T22:46:11.690Z,94.50
2023-12-05T22:50:15.343Z,94.59
2023-12-05T22:54:18.924Z,94.68
2023-12-05T22:58:22.214Z,94.70
2023-12-05T23:02:25.608Z,94.71
2023-12-05T23:06:28.932Z,94.77
2023-12-05T23:10:34.288Z,94.79
2023-12-05T23:14:37.863Z,94.64
2023-12-05T23:18:41.139Z,94.85
2023-12-05T23:22:45.195Z,94.65
2023-12-05T23:26:48.436Z,94.72
2023-12-05T23:30:51.826Z,94.66
2023-12-05T23:34:55.409Z,94.60
2023-12-05T23:38:58.742Z,94.81
2023-12-05T23:43:02.180Z,94.92
2023-12-05T23:47:05.737Z,94.97
2023-12-05T23:51:09.068Z,95.19
2023-12-05T23:55:12.832Z,95.25
2023-12-05T23:59:16.257Z,95.28
